McKeesport, PA (15135)

7:35 PM EST on February 14, 2016 (GMT -0500)
Mckeesport | | Change Station
CLOSE
Current Station
Personal Weather Station
Location: McKeesport, PA
Elevation: 1148 ft
Nearby Weather Stations

Elev 1148 ft 40.32 °N, 79.81 °W | Updated 5 minutes ago

Mostly Cloudy
Mostly Cloudy
17.5 °F
Feels Like 18 °F
N
0.0
Wind Variable Wind from North
Gusts 5.0 mph

Today
High -- | Low -- °F
--% Chance of Precip.
Yesterday
High -- | Low -- °F
Precip. -- in
Pressure 30.38 in
Visibility 10.0 miles
Clouds Clear
Windchill 18 °F
Dew Point 5 °F
Humidity 57%
Rainfall 0.00 in
Snow Depth Not available.
7:14 AM 5:53 PM
Waxing Crescent, 47% visible
METAR KAGC 142353Z VRB04KT 10SM CLR M08/M18 A3029 RMK AO2 SLP287 T10831178 11078 21094 58010
Pressure 30.38 in
Visibility 10.0 miles
Clouds Clear
Windchill 18 °F
Dew Point 5 °F
Humidity 57%
Rainfall 0.00 in
Snow Depth Not available.
7:14 AM 5:53 PM
Waxing Crescent, 47% visible
METAR KAGC 142353Z VRB04KT 10SM CLR M08/M18 A3029 RMK AO2 SLP287 T10831178 11078 21094 58010

10-Day Weather Forecast

Almanac

Astronomy

Feb. 14, 2016 Rise Set
Actual Time
Civil Twilight
Nautical Twilight
Astronomical Twilight
Moon
Length of Visible Light
Length of Day
Tomorrow will be .
, % of the Moon is Illuminated

Today's Extremes

State Highs State Lows

Community

WunderPhotos

Upload Photos

1,892,950 photos uploaded!

WunderBlog® & News

Nearby

Air Quality

  Air Quality AQ Index Pollutant
Not available.

Snow Depth

Station Depth Elevation

Earthquake Activity

City Distance Mag. Time & Date
Minimum magnitude displayed is 2.5.

Coastal Water Temperatures

Place Temperature

Stations

Nearby Weather Stations

Station Location Temp. Windchill Dew Point Humidity Wind Precip. Elev Updated Type
                   

Watches & Warnings

There are currently no watches in effect.